Time;durP1;ratioP1;P1;durP2;ratioP2;P2;SDS_P1;SDS_P2;PMS_P1;PMS_P2;Temp;Humidity;BMP_temperature;BMP_pressure;BME280_temperature;BME280_humidity;BME280_pressure;Samples;Min_cycle;Max_cycle;Signal;HPM_P1;HPM_P2
2021/04/16 00:00:41;;;;;;;5.30;1.98;;;17.30;79.00;;;;;;4968528;28;95586;-45
2021/04/16 00:03:12;;;;;;;9.48;2.25;;;17.30;78.90;;;;;;4969707;28;95514;-46
2021/04/16 00:05:43;;;;;;;4.18;2.45;;;17.30;78.90;;;;;;4953508;28;95281;-44
2021/04/16 00:08:20;;;;;;;5.20;2.22;;;17.30;78.80;;;;;;4957254;28;95898;-46
2021/04/16 00:11:06;;;;;;;3.45;1.90;;;17.30;78.70;;;;;;4971548;28;102720;-49
2021/04/16 00:13:36;;;;;;;3.72;1.45;;;17.30;78.60;;;;;;4969865;28;95366;-49
2021/04/16 00:16:09;;;;;;;5.63;2.42;;;17.30;78.50;;;;;;4967851;28;95383;-50
2021/04/16 00:18:40;;;;;;;5.07;2.20;;;17.30;78.50;;;;;;4971512;28;95891;-50
2021/04/16 00:21:10;;;;;;;5.90;1.90;;;17.30;78.50;;;;;;4970050;28;95859;-46
2021/04/16 00:23:41;;;;;;;3.30;1.83;;;17.30;78.40;;;;;;4971632;28;95409;-45
2021/04/16 00:26:15;;;;;;;4.20;1.80;;;17.30;78.30;;;;;;4968545;28;95531;-45
2021/04/16 00:28:47;;;;;;;6.05;2.00;;;17.30;78.20;;;;;;4971393;28;95832;-44
2021/04/16 00:31:25;;;;;;;4.00;1.58;;;17.30;78.20;;;;;;4963579;28;95938;-44
2021/04/16 00:33:56;;;;;;;3.90;1.48;;;17.30;78.10;;;;;;4986111;28;95216;-43
2021/04/16 00:36:27;;;;;;;2.60;1.83;;;17.30;78.00;;;;;;4968286;28;95895;-44
2021/04/16 00:38:58;;;;;;;5.07;2.00;;;17.30;78.10;;;;;;4971343;28;95871;-46
2021/04/16 00:41:30;;;;;;;5.82;1.52;;;17.30;78.00;;;;;;4968259;28;95219;-44
2021/04/16 00:43:59;;;;;;;;;;;17.40;78.00;;;;;;4971816;28;95284;-45
2021/04/16 00:46:52;;;;;;;5.28;2.05;;;17.30;77.90;;;;;;4966337;28;95262;-45
2021/04/16 00:49:31;;;;;;;3.05;1.92;;;17.40;78.00;;;;;;4953857;28;96780;-45
2021/04/16 00:52:06;;;;;;;3.67;1.70;;;17.40;77.90;;;;;;4963055;28;95550;-47
2021/04/16 00:54:42;;;;;;;4.38;1.38;;;17.40;77.90;;;;;;4973262;28;95202;-44
2021/04/16 00:57:16;;;;;;;5.47;1.88;;;17.40;77.80;;;;;;4972043;28;95134;-45
2021/04/16 00:59:58;;;;;;;3.25;2.15;;;17.40;77.80;;;;;;4952003;28;97006;-46
2021/04/16 01:02:28;;;;;;;2.92;1.42;;;17.40;77.80;;;;;;4973385;28;96725;-45
2021/04/16 01:04:59;;;;;;;2.42;1.60;;;17.40;77.70;;;;;;4991338;28;95620;-45
2021/04/16 01:07:29;;;;;;;5.38;1.40;;;17.40;77.70;;;;;;4972079;28;95160;-45
2021/04/16 01:09:59;;;;;;;4.00;1.83;;;17.40;77.70;;;;;;4970585;28;95869;-45
2021/04/16 01:12:29;;;;;;;3.85;1.63;;;17.50;77.70;;;;;;4966430;28;96087;-45
2021/04/16 01:15:08;;;;;;;4.97;2.03;;;17.50;77.60;;;;;;4971034;28;95628;-44
2021/04/16 01:17:37;;;;;;;4.05;1.65;;;17.50;77.60;;;;;;4964108;28;95492;-45
2021/04/16 01:20:21;;;;;;;3.97;2.10;;;17.50;77.60;;;;;;4970688;28;97263;-45
2021/04/16 01:23:07;;;;;;;2.03;1.40;;;17.50;77.60;;;;;;4967639;28;95934;-45
2021/04/16 01:25:39;;;;;;;2.38;1.17;;;17.50;77.50;;;;;;4969703;28;95097;-46
2021/04/16 01:28:11;;;;;;;5.30;1.10;;;17.50;77.50;;;;;;4967948;28;95574;-44
2021/04/16 01:31:17;;;;;;;3.30;1.55;;;17.50;77.50;;;;;;4966359;28;95840;-45
2021/04/16 01:33:49;;;;;;;2.50;1.23;;;17.50;77.50;;;;;;4926119;28;95544;-45
2021/04/16 01:36:32;;;;;;;2.28;1.52;;;17.50;77.40;;;;;;4951772;28;95104;-45
2021/04/16 01:39:05;;;;;;;1.88;1.02;;;17.50;77.40;;;;;;4984167;28;103846;-45
2021/04/16 01:41:34;;;;;;;1.67;1.35;;;17.50;77.40;;;;;;4982688;28;96029;-45
2021/04/16 01:44:11;;;;;;;1.52;1.42;;;17.50;77.40;;;;;;4969581;28;96001;-43
2021/04/16 01:47:08;;;;;;;2.80;1.40;;;17.50;77.40;;;;;;4966451;28;95647;-45
2021/04/16 01:49:44;;;;;;;4.47;1.20;;;17.50;77.30;;;;;;4971634;28;95218;-44
2021/04/16 01:52:29;;;;;;;3.60;1.40;;;17.50;77.40;;;;;;4971353;28;96591;-48
2021/04/16 01:55:00;;;;;;;0.93;0.88;;;17.50;77.30;;;;;;4953586;28;95506;-46
2021/04/16 01:57:33;;;;;;;4.68;1.85;;;17.50;77.30;;;;;;4971809;28;95245;-46
2021/04/16 02:00:17;;;;;;;2.55;1.25;;;17.50;77.30;;;;;;4970919;28;95301;-45
2021/04/16 02:02:48;;;;;;;2.65;1.30;;;17.50;77.30;;;;;;4946549;28;97973;-45
2021/04/16 02:05:19;;;;;;;2.53;1.02;;;17.50;77.90;;;;;;4950711;28;95630;-44
2021/04/16 02:07:49;;;;;;;5.93;1.50;;;17.50;77.30;;;;;;4952175;28;95359;-44
2021/04/16 02:10:18;;;;;;;1.65;0.85;;;17.50;77.30;;;;;;4970600;28;95524;-44
2021/04/16 02:12:49;;;;;;;3.15;1.30;;;17.50;77.30;;;;;;4973628;28;96283;-44
2021/04/16 02:15:23;;;;;;;3.70;1.58;;;17.50;77.30;;;;;;4961380;28;96408;-45
2021/04/16 02:17:53;;;;;;;3.53;1.20;;;17.50;77.30;;;;;;4966370;28;95419;-44
2021/04/16 02:20:25;;;;;;;1.35;1.23;;;17.50;77.20;;;;;;4970311;28;95215;-46
2021/04/16 02:22:56;;;;;;;2.45;1.42;;;17.50;77.20;;;;;;4972098;28;96513;-45
2021/04/16 02:25:30;;;;;;;9.35;1.70;;;17.50;77.20;;;;;;4969173;28;95382;-45
2021/04/16 02:28:01;;;;;;;1.58;1.02;;;17.50;77.20;;;;;;4962777;28;96314;-44
2021/04/16 02:30:35;;;;;;;5.13;1.33;;;17.50;77.20;;;;;;4939866;28;96862;-43
2021/04/16 02:33:06;;;;;;;4.00;1.58;;;17.50;77.40;;;;;;4949851;28;96950;-41
2021/04/16 02:35:36;;;;;;;1.73;1.35;;;17.60;77.50;;;;;;4942292;28;95906;-41
2021/04/16 02:38:07;;;;;;;5.50;1.33;;;17.60;77.40;;;;;;4943153;28;95461;-43
2021/04/16 02:40:37;;;;;;;2.40;1.00;;;17.80;77.20;;;;;;4957427;28;95707;-44
2021/04/16 02:43:07;;;;;;;4.13;1.25;;;17.80;77.20;;;;;;4960772;28;95923;-46
2021/04/16 02:45:39;;;;;;;7.53;1.40;;;17.80;77.10;;;;;;4966586;28;95300;-45
2021/04/16 02:48:08;;;;;;;3.47;1.23;;;17.80;77.20;;;;;;4961951;28;95415;-45
2021/04/16 02:50:38;;;;;;;3.65;1.40;;;17.80;77.20;;;;;;4954207;28;95691;-45
2021/04/16 02:53:08;;;;;;;1.13;0.73;;;17.80;77.10;;;;;;4970498;28;95926;-45
2021/04/16 02:55:38;;;;;;;3.95;1.35;;;17.80;77.10;;;;;;4965946;28;95694;-45
2021/04/16 02:58:11;;;;;;;4.18;1.40;;;17.80;77.00;;;;;;4954835;28;95508;-46
2021/04/16 03:00:44;;;;;;;2.67;1.02;;;17.80;77.00;;;;;;4949898;28;95775;-44
2021/04/16 03:03:14;;;;;;;1.38;0.82;;;17.80;77.00;;;;;;4951451;28;96235;-46
2021/04/16 03:05:47;;;;;;;5.35;1.98;;;17.80;76.90;;;;;;4966007;28;96342;-45
2021/04/16 03:08:17;;;;;;;2.58;1.38;;;17.80;76.80;;;;;;4972005;28;95053;-44
2021/04/16 03:10:50;;;;;;;2.88;1.30;;;17.80;76.80;;;;;;4969240;28;97679;-44
2021/04/16 03:13:19;;;;;;;1.42;0.90;;;17.80;76.80;;;;;;4956280;28;95856;-45
2021/04/16 03:15:50;;;;;;;1.95;1.20;;;17.80;76.70;;;;;;4963176;28;95618;-44
2021/04/16 03:18:20;;;;;;;2.70;1.35;;;17.80;76.70;;;;;;4955428;28;95615;-44
2021/04/16 03:20:50;;;;;;;3.17;1.13;;;17.80;76.70;;;;;;4955998;28;95703;-45
2021/04/16 03:48:05;;;;;;;3.08;1.83;;;17.80;76.50;;;;;;4959366;28;95103;-46
2021/04/16 03:50:37;;;;;;;2.50;1.15;;;17.80;76.50;;;;;;4957363;28;95109;-45
2021/04/16 03:53:07;;;;;;;;;;;17.80;76.60;;;;;;4951546;28;95910;-46
2021/04/16 03:55:39;;;;;;;1.25;0.90;;;17.80;76.40;;;;;;4959879;28;95750;-46
2021/04/16 03:58:12;;;;;;;1.83;1.13;;;17.80;76.40;;;;;;4955254;28;95210;-46
2021/04/16 04:00:43;;;;;;;2.03;0.90;;;17.80;76.30;;;;;;4960680;28;95300;-45
2021/04/16 04:03:14;;;;;;;2.40;0.90;;;17.80;76.30;;;;;;4961168;28;95842;-45
2021/04/16 04:05:44;;;;;;;3.80;1.00;;;17.80;76.30;;;;;;4964785;28;95707;-46
2021/04/16 04:08:13;;;;;;;1.80;0.88;;;17.80;76.30;;;;;;4959067;28;95647;-46
2021/04/16 04:10:43;;;;;;;2.38;1.05;;;17.80;76.20;;;;;;4950150;28;95360;-45
2021/04/16 04:13:15;;;;;;;5.88;1.17;;;17.80;76.20;;;;;;4949462;28;99652;-47
2021/04/16 04:15:49;;;;;;;1.40;0.60;;;17.80;76.30;;;;;;4953232;28;97609;-45
2021/04/16 04:18:30;;;;;;;;;;;17.80;76.30;;;;;;4953750;28;95504;-45
2021/04/16 04:21:00;;;;;;;1.20;1.00;;;17.80;76.20;;;;;;4952627;28;95513;-45
2021/04/16 04:23:30;;;;;;;2.08;1.02;;;17.80;76.20;;;;;;4958825;28;95848;-45
2021/04/16 04:26:01;;;;;;;1.85;0.95;;;17.80;76.30;;;;;;4949333;28;95480;-45
2021/04/16 04:28:32;;;;;;;3.30;1.27;;;17.80;76.30;;;;;;4947361;28;95631;-45
2021/04/16 04:31:03;;;;;;;1.88;0.82;;;17.80;76.10;;;;;;4939479;28;95901;-45
2021/04/16 04:33:34;;;;;;;1.63;0.93;;;17.80;76.20;;;;;;4955099;28;96300;-45
2021/04/16 04:36:05;;;;;;;0.60;0.60;;;17.80;76.10;;;;;;4955757;28;95634;-45
2021/04/16 04:38:34;;;;;;;4.68;1.35;;;17.80;76.20;;;;;;4950699;28;95538;-46
2021/04/16 04:41:03;;;;;;;1.70;1.10;;;17.80;76.20;;;;;;4954264;28;95163;-46
2021/04/16 04:43:34;;;;;;;3.40;1.58;;;17.80;76.20;;;;;;4951498;28;98038;-45
2021/04/16 04:46:09;;;;;;;1.67;0.85;;;17.80;76.20;;;;;;4949304;28;97698;-45
2021/04/16 04:48:43;;;;;;;2.47;1.02;;;17.80;76.20;;;;;;4949894;28;95901;-45
2021/04/16 04:51:14;;;;;;;2.40;1.52;;;17.80;76.20;;;;;;4950744;28;96072;-44
2021/04/16 04:53:44;;;;;;;1.30;0.98;;;17.80;76.20;;;;;;4952104;28;95835;-44
2021/04/16 04:56:14;;;;;;;2.35;1.17;;;17.80;76.20;;;;;;4951377;28;95882;-46
2021/04/16 04:58:43;;;;;;;1.10;0.65;;;17.80;76.20;;;;;;4950468;28;95589;-45
2021/04/16 05:01:14;;;;;;;2.25;1.10;;;17.80;76.10;;;;;;4949212;28;97210;-44
2021/04/16 05:03:48;;;;;;;1.52;1.25;;;17.80;76.10;;;;;;4964224;28;97700;-47
2021/04/16 05:06:17;;;;;;;1.40;0.70;;;17.70;76.10;;;;;;4964928;28;95768;-45
2021/04/16 05:08:48;;;;;;;2.08;0.93;;;17.80;76.20;;;;;;4956005;28;95318;-45
2021/04/16 05:11:20;;;;;;;2.20;1.33;;;17.70;76.20;;;;;;4943775;28;100685;-44
2021/04/16 05:13:53;;;;;;;2.10;0.70;;;17.80;76.20;;;;;;4984790;28;96021;-44
2021/04/16 05:16:23;;;;;;;2.38;1.40;;;17.80;76.20;;;;;;4952904;28;96445;-46
2021/04/16 05:18:53;;;;;;;2.58;0.80;;;17.80;76.20;;;;;;4948864;28;95616;-45
2021/04/16 05:21:25;;;;;;;2.43;1.03;;;17.70;76.10;;;;;;4951553;28;96148;-44
2021/04/16 05:23:57;;;;;;;2.03;0.73;;;17.70;76.10;;;;;;4968085;28;97105;-45
2021/04/16 05:26:30;;;;;;;3.58;0.90;;;17.80;76.20;;;;;;4964462;28;95932;-46
2021/04/16 05:29:01;;;;;;;2.35;1.20;;;17.80;76.20;;;;;;4949185;28;95527;-44
2021/04/16 05:31:34;;;;;;;1.35;0.77;;;17.80;76.20;;;;;;4955530;28;95402;-45
2021/04/16 05:34:05;;;;;;;1.85;0.80;;;17.80;76.20;;;;;;4948448;28;96375;-45
2021/04/16 05:36:34;;;;;;;0.85;0.85;;;17.70;76.10;;;;;;4946953;28;97182;-44
2021/04/16 05:39:04;;;;;;;0.82;0.82;;;17.80;76.20;;;;;;4968647;28;95865;-44
2021/04/16 05:41:34;;;;;;;1.67;0.75;;;17.80;76.20;;;;;;4969176;28;97349;-44
2021/04/16 05:44:03;;;;;;;2.03;0.65;;;17.70;76.10;;;;;;4953427;28;96409;-45
2021/04/16 05:46:36;;;;;;;1.33;0.75;;;17.70;76.20;;;;;;4956067;28;103060;-44
2021/04/16 05:49:08;;;;;;;0.95;0.82;;;17.70;76.20;;;;;;4969277;28;95685;-44
2021/04/16 05:51:39;;;;;;;1.70;0.85;;;17.70;76.20;;;;;;4965520;28;95888;-45
2021/04/16 05:54:11;;;;;;;1.60;1.50;;;17.70;76.20;;;;;;4953068;28;96632;-45
2021/04/16 05:56:40;;;;;;;;;;;17.70;76.20;;;;;;4960177;28;95703;-44
2021/04/16 05:59:09;;;;;;;1.55;0.63;;;17.70;76.20;;;;;;4970270;28;95407;-44
2021/04/16 06:01:39;;;;;;;2.40;0.90;;;17.70;76.20;;;;;;4961590;28;95513;-46
2021/04/16 06:04:18;;;;;;;1.17;0.97;;;17.70;76.20;;;;;;4954880;28;95799;-44
2021/04/16 06:06:48;;;;;;;8.70;1.30;;;17.70;76.20;;;;;;4960548;28;95981;-45
2021/04/16 06:09:18;;;;;;;1.35;0.65;;;17.70;76.20;;;;;;4951748;28;96031;-45
2021/04/16 06:11:48;;;;;;;1.42;0.90;;;17.70;76.20;;;;;;4953170;28;95548;-45
2021/04/16 06:14:17;;;;;;;3.00;0.90;;;17.70;76.20;;;;;;4952162;28;95917;-45
2021/04/16 06:16:48;;;;;;;0.40;0.38;;;17.70;76.10;;;;;;4951020;28;97984;-45
2021/04/16 06:19:19;;;;;;;1.95;0.82;;;17.70;76.10;;;;;;4954645;28;95242;-46
2021/04/16 06:21:49;;;;;;;4.53;1.30;;;17.70;76.10;;;;;;4952921;28;95659;-45
2021/04/16 06:24:20;;;;;;;1.17;0.65;;;17.70;76.10;;;;;;4949460;28;96876;-44
2021/04/16 06:26:51;;;;;;;3.37;1.03;;;17.60;76.00;;;;;;4970151;28;95803;-44
2021/04/16 06:29:21;;;;;;;3.15;0.95;;;17.70;76.10;;;;;;4962203;28;95558;-44
2021/04/16 06:31:53;;;;;;;0.90;0.75;;;17.70;76.00;;;;;;4953509;28;95972;-43
2021/04/16 06:34:23;;;;;;;2.88;0.73;;;17.60;76.00;;;;;;4955440;28;96280;-45
2021/04/16 06:36:54;;;;;;;0.98;0.63;;;17.60;76.10;;;;;;4950274;28;95601;-47
2021/04/16 06:39:25;;;;;;;1.45;0.65;;;17.60;76.10;;;;;;4956612;28;95090;-45
2021/04/16 06:41:59;;;;;;;1.17;0.75;;;17.60;76.00;;;;;;4960315;28;95494;-45
2021/04/16 06:44:33;;;;;;;1.50;0.70;;;17.60;76.00;;;;;;4953751;28;96627;-44
2021/04/16 06:47:11;;;;;;;5.18;1.08;;;17.60;76.10;;;;;;4950061;28;95562;-44
2021/04/16 06:49:43;;;;;;;2.25;0.73;;;17.60;75.50;;;;;;4964186;28;95656;-46
2021/04/16 06:52:20;;;;;;;2.47;0.77;;;17.60;76.00;;;;;;4953143;28;95338;-46
2021/04/16 06:55:11;;;;;;;2.63;0.93;;;17.60;76.00;;;;;;4956791;28;95830;-45
2021/04/16 06:57:41;;;;;;;0.75;0.70;;;17.60;76.10;;;;;;4951817;28;95378;-45
2021/04/16 07:00:18;;;;;;;2.03;0.65;;;17.60;76.10;;;;;;4976410;28;95834;-45
2021/04/16 07:03:07;;;;;;;0.90;0.73;;;17.60;76.00;;;;;;4980855;28;95956;-44
2021/04/16 07:05:45;;;;;;;1.27;0.70;;;17.60;76.00;;;;;;4963000;28;96008;-45
2021/04/16 07:08:26;;;;;;;2.28;0.70;;;17.60;76.00;;;;;;4953203;28;95400;-44
2021/04/16 07:10:58;;;;;;;1.77;0.90;;;17.60;76.10;;;;;;4961716;28;95209;-44
2021/04/16 07:13:34;;;;;;;1.08;0.77;;;17.60;76.10;;;;;;4951271;28;95600;-46
2021/04/16 07:16:07;;;;;;;0.93;0.75;;;17.60;76.10;;;;;;4951968;28;96625;-44
2021/04/16 07:18:46;;;;;;;3.03;1.30;;;17.60;76.10;;;;;;4950900;28;95211;-44
2021/04/16 07:21:18;;;;;;;1.20;0.90;;;17.50;76.10;;;;;;4952271;28;95666;-44
2021/04/16 07:23:58;;;;;;;2.10;0.77;;;17.60;76.10;;;;;;4951881;28;98009;-44
2021/04/16 07:26:51;;;;;;;1.25;0.90;;;17.50;76.20;;;;;;4962761;28;97442;-44
2021/04/16 07:29:43;;;;;;;2.10;0.77;;;17.50;76.10;;;;;;4970427;28;95739;-51
2021/04/16 07:32:39;;;;;;;1.25;1.08;;;17.50;76.10;;;;;;4948241;28;95602;-47
2021/04/16 07:35:34;;;;;;;2.30;1.20;;;17.50;76.10;;;;;;4968928;28;95800;-49
2021/04/16 07:38:14;;;;;;;2.65;0.93;;;17.50;76.20;;;;;;4954842;28;96101;-50
2021/04/16 07:40:47;;;;;;;3.92;1.38;;;17.50;76.10;;;;;;4953316;28;97563;-46
2021/04/16 07:43:41;;;;;;;3.10;1.08;;;17.50;76.20;;;;;;4956132;28;95687;-46
2021/04/16 07:46:28;;;;;;;2.60;1.23;;;17.50;76.10;;;;;;4973307;28;95284;-48
2021/04/16 07:49:14;;;;;;;3.83;1.88;;;17.50;76.10;;;;;;4968874;28;95819;-44
2021/04/16 07:51:48;;;;;;;2.40;1.42;;;17.50;76.20;;;;;;4968011;28;97882;-43
2021/04/16 07:54:28;;;;;;;3.30;1.52;;;17.50;76.20;;;;;;4934977;28;95474;-45
2021/04/16 07:57:13;;;;;;;4.65;1.48;;;17.40;76.20;;;;;;4936007;28;95299;-46
2021/04/16 08:00:08;;;;;;;2.20;1.55;;;17.50;76.30;;;;;;4950768;28;96067;-47
2021/04/16 08:02:56;;;;;;;5.05;1.90;;;17.50;76.30;;;;;;4951729;28;101067;-46
2021/04/16 08:05:37;;;;;;;3.30;1.63;;;17.50;76.40;;;;;;4950154;28;95045;-45
2021/04/16 08:08:25;;;;;;;1.77;1.38;;;17.50;76.30;;;;;;4944775;28;95513;-45
2021/04/16 08:11:06;;;;;;;3.55;1.45;;;17.40;76.30;;;;;;4950679;28;96402;-44
2021/04/16 08:13:47;;;;;;;2.50;1.63;;;17.40;76.30;;;;;;4941213;28;95740;-45
2021/04/16 08:16:20;;;;;;;2.40;1.25;;;17.40;76.30;;;;;;4954080;28;95815;-44
2021/04/16 08:19:10;;;;;;;3.08;2.03;;;17.40;76.30;;;;;;4959821;28;95051;-45
2021/04/16 08:21:49;;;;;;;1.83;1.40;;;17.40;76.40;;;;;;4948921;28;95851;-45
2021/04/16 08:24:43;;;;;;;3.92;2.05;;;17.40;76.30;;;;;;4948689;28;95763;-47
2021/04/16 08:27:33;;;;;;;4.45;2.15;;;17.40;76.40;;;;;;4951897;28;95710;-45
2021/04/16 08:30:28;;;;;;;3.83;2.10;;;17.40;76.40;;;;;;4950642;28;95799;-44
2021/04/16 08:33:23;;;;;;;9.05;2.35;;;17.40;76.40;;;;;;4949436;28;102175;-44
2021/04/16 08:36:24;;;;;;;2.95;1.60;;;17.40;76.40;;;;;;4949359;28;95538;-44
2021/04/16 08:39:06;;;;;;;8.32;2.83;;;17.30;76.40;;;;;;4956363;28;95714;-44
2021/04/16 08:42:02;;;;;;;4.47;2.13;;;17.30;76.40;;;;;;4969596;28;95814;-44
2021/04/16 08:44:43;;;;;;;5.28;2.25;;;17.30;76.40;;;;;;4954072;28;95935;-45
2021/04/16 08:47:58;;;;;;;2.97;2.00;;;17.30;76.40;;;;;;4928171;28;98222;-45
2021/04/16 08:50:37;;;;;;;4.60;3.05;;;17.30;76.70;;;;;;4948440;28;97648;-44
2021/04/16 08:53:07;;;;;;;10.70;4.80;;;17.30;76.60;;;;;;4952869;28;95769;-45
2021/04/16 08:55:43;;;;;;;14.70;5.80;;;17.40;76.70;;;;;;4947015;28;96006;-45
2021/04/16 08:58:43;;;;;;;13.18;5.70;;;17.50;76.20;;;;;;4946596;28;97163;-45
2021/04/16 09:01:37;;;;;;;12.60;6.88;;;17.70;75.90;;;;;;4945328;28;95565;-45
2021/04/16 09:04:49;;;;;;;10.63;5.38;;;17.70;75.60;;;;;;4947963;28;95339;-45
2021/04/16 09:07:44;;;;;;;9.32;5.25;;;17.90;75.50;;;;;;4948291;28;96047;-45
2021/04/16 09:10:23;;;;;;;12.45;5.70;;;17.90;75.60;;;;;;4955397;28;99941;-46
2021/04/16 09:12:55;;;;;;;11.95;5.70;;;17.90;75.70;;;;;;4956535;28;95793;-45
2021/04/16 09:15:40;;;;;;;16.17;6.32;;;17.80;76.00;;;;;;4963491;28;95317;-47
2021/04/16 09:18:25;;;;;;;13.98;5.90;;;17.90;76.10;;;;;;4949190;28;102097;-45
2021/04/16 09:20:54;;;;;;;14.43;5.93;;;17.90;76.10;;;;;;4949644;28;95858;-45
2021/04/16 09:23:35;;;;;;;11.70;4.80;;;17.80;76.10;;;;;;4954216;28;95308;-46
2021/04/16 09:26:08;;;;;;;11.60;6.07;;;17.80;76.10;;;;;;4951927;28;95721;-45
2021/04/16 09:28:55;;;;;;;11.85;6.07;;;17.80;76.10;;;;;;4954036;28;95933;-46
2021/04/16 09:31:26;;;;;;;9.88;5.18;;;17.90;76.00;;;;;;4938518;28;96132;-46
2021/04/16 09:34:20;;;;;;;9.57;4.88;;;17.90;76.00;;;;;;4937527;28;95728;-45
2021/04/16 09:37:29;;;;;;;11.52;5.20;;;17.90;76.00;;;;;;4938660;28;95892;-47
2021/04/16 09:40:27;;;;;;;17.67;5.28;;;17.90;76.10;;;;;;4924181;28;96020;-45
2021/04/16 09:43:10;;;;;;;16.38;5.88;;;17.90;76.10;;;;;;4962099;28;95268;-46
2021/04/16 09:45:48;;;;;;;13.57;5.70;;;17.90;76.10;;;;;;4948596;28;95532;-45
2021/04/16 09:48:18;;;;;;;9.80;5.25;;;17.90;76.00;;;;;;4951459;28;95257;-45
2021/04/16 09:50:49;;;;;;;8.82;4.80;;;17.90;76.10;;;;;;4952324;28;95813;-45
2021/04/16 09:53:37;;;;;;;10.18;5.78;;;17.90;76.00;;;;;;4961031;28;96242;-45
2021/04/16 09:56:11;;;;;;;10.73;4.82;;;17.90;76.00;;;;;;4962857;28;96993;-49
2021/04/16 09:58:43;;;;;;;12.05;5.03;;;17.90;76.10;;;;;;4950788;28;95624;-45
2021/04/16 10:01:16;;;;;;;12.32;5.95;;;17.90;76.10;;;;;;4948866;28;96088;-45
2021/04/16 10:03:54;;;;;;;10.23;4.70;;;17.90;76.10;;;;;;4932344;28;95679;-45
2021/04/16 10:06:43;;;;;;;11.57;5.38;;;17.90;76.10;;;;;;4954001;28;95619;-44
2021/04/16 10:09:23;;;;;;;9.93;4.80;;;17.90;76.00;;;;;;4960642;28;95702;-45
2021/04/16 10:12:18;;;;;;;12.60;5.22;;;17.90;75.90;;;;;;4952505;28;98198;-48
2021/04/16 10:14:47;;;;;;;13.68;5.72;;;17.90;76.10;;;;;;4958653;28;96867;-45
2021/04/16 10:17:23;;;;;;;13.75;5.43;;;17.80;75.90;;;;;;4948250;28;95614;-45
2021/04/16 10:20:19;;;;;;;10.27;5.25;;;17.90;76.00;;;;;;4950505;28;95874;-45
2021/04/16 10:23:17;;;;;;;11.20;5.93;;;17.90;76.10;;;;;;4945690;28;95844;-45
2021/04/16 12:40:18;;;;;;;8.68;5.05;;;17.30;77.70;;;;;;4948335;28;95685;-59
2021/04/16 12:42:47;;;;;;;10.45;5.03;;;17.30;77.80;;;;;;4951181;28;98012;-57
2021/04/16 12:45:19;;;;;;;10.60;5.47;;;17.30;77.90;;;;;;4961086;28;95721;-57
2021/04/16 12:47:57;;;;;;;8.20;4.95;;;17.30;77.90;;;;;;4966589;28;95028;-59
2021/04/16 12:50:33;;;;;;;12.68;6.10;;;17.30;78.50;;;;;;4971481;28;95295;-59
2021/04/16 12:53:04;;;;;;;6.38;4.28;;;17.30;77.90;;;;;;4967469;28;95867;-58
2021/04/16 12:55:33;;;;;;;9.00;5.22;;;17.30;78.00;;;;;;4969397;28;95248;-59
2021/04/16 12:58:08;;;;;;;8.68;5.45;;;17.30;78.10;;;;;;4958583;28;95569;-61
2021/04/16 13:00:42;;;;;;;8.45;5.10;;;17.20;78.10;;;;;;4946680;28;97580;-59
2021/04/16 13:03:19;;;;;;;8.45;5.45;;;17.20;78.10;;;;;;4954053;28;96619;-59
2021/04/16 13:05:50;;;;;;;7.65;5.13;;;17.20;78.20;;;;;;4970661;28;95746;-60
2021/04/16 13:08:21;;;;;;;10.25;5.57;;;17.20;78.70;;;;;;4946544;28;95627;-60
2021/04/16 13:10:52;;;;;;;13.43;5.38;;;17.10;78.90;;;;;;4951337;28;95438;-60
2021/04/16 13:13:21;;;;;;;13.75;6.38;;;17.20;79.40;;;;;;4952870;28;96397;-60
2021/04/16 13:15:54;;;;;;;9.43;4.70;;;17.20;79.40;;;;;;4964818;28;95272;-60
2021/04/16 13:18:37;;;;;;;10.05;5.38;;;17.10;79.60;;;;;;4966973;28;95789;-55
2021/04/16 13:21:21;;;;;;;13.63;6.10;;;17.10;79.50;;;;;;4951614;28;95451;-57
2021/04/16 13:23:52;;;;;;;10.73;5.97;;;17.10;79.70;;;;;;4952746;28;96050;-58
2021/04/16 13:26:25;;;;;;;11.15;5.78;;;17.10;79.70;;;;;;4969752;28;95844;-57
2021/04/16 13:28:56;;;;;;;9.82;4.93;;;17.10;79.60;;;;;;4949309;28;96190;-54
2021/04/16 13:31:35;;;;;;;11.98;5.07;;;17.00;79.60;;;;;;4955791;28;95468;-57
2021/04/16 13:34:07;;;;;;;8.43;5.10;;;17.00;79.60;;;;;;4956592;28;96150;-56
2021/04/16 13:36:37;;;;;;;8.57;5.53;;;17.00;79.50;;;;;;4963999;28;95893;-56
2021/04/16 13:39:08;;;;;;;11.55;5.43;;;17.00;79.60;;;;;;4950410;28;95475;-56
2021/04/16 13:41:37;;;;;;;9.75;4.88;;;17.00;79.60;;;;;;4966055;28;95262;-56
2021/04/16 13:44:08;;;;;;;9.07;5.68;;;17.00;79.70;;;;;;4971531;28;95877;-58
2021/04/16 13:46:41;;;;;;;9.93;5.28;;;17.00;79.70;;;;;;4965487;28;95773;-56
2021/04/16 13:49:19;;;;;;;8.45;5.15;;;17.00;79.70;;;;;;4967373;28;96496;-56
2021/04/16 13:51:49;;;;;;;9.93;5.53;;;17.00;79.70;;;;;;4962526;28;95394;-57
2021/04/16 13:54:20;;;;;;;7.97;5.05;;;16.90;79.70;;;;;;4967545;28;95884;-56
2021/04/16 13:56:52;;;;;;;9.15;5.72;;;16.90;79.70;;;;;;4969962;28;95888;-56
2021/04/16 13:59:24;;;;;;;9.90;5.78;;;16.90;79.80;;;;;;4964283;28;95680;-57
2021/04/16 14:01:55;;;;;;;10.45;4.95;;;16.90;80.40;;;;;;4962716;28;95649;-57
2021/04/16 14:04:33;;;;;;;10.07;5.93;;;16.90;79.80;;;;;;4969871;28;97017;-56
2021/04/16 14:07:08;;;;;;;11.90;5.75;;;16.90;79.70;;;;;;4987976;28;95781;-58
2021/04/16 14:09:38;;;;;;;9.02;5.43;;;16.90;79.80;;;;;;4971095;28;95008;-57
2021/04/16 14:12:11;;;;;;;10.38;5.45;;;16.90;79.80;;;;;;4957089;28;95325;-57
2021/04/16 14:14:44;;;;;;;8.40;4.90;;;16.80;79.80;;;;;;4971017;28;95903;-57
2021/04/16 14:17:21;;;;;;;9.23;5.40;;;16.80;79.70;;;;;;4969796;28;95220;-55
2021/04/16 14:20:02;;;;;;;8.90;5.55;;;16.80;79.80;;;;;;4970395;28;95033;-57
2021/04/16 14:22:44;;;;;;;15.77;6.07;;;16.80;79.80;;;;;;4973310;28;95681;-54
2021/04/16 14:25:28;;;;;;;8.45;5.03;;;16.80;79.90;;;;;;4969595;28;96337;-58
2021/04/16 14:27:59;;;;;;;9.73;5.05;;;16.80;79.90;;;;;;4972236;28;95817;-56
2021/04/16 14:30:33;;;;;;;9.27;5.22;;;16.80;79.90;;;;;;4964832;28;98562;-56
2021/04/16 14:33:08;;;;;;;10.40;5.72;;;16.80;79.90;;;;;;4973090;28;95472;-56
2021/04/16 14:35:38;;;;;;;9.45;5.45;;;16.70;80.00;;;;;;4970005;28;96763;-56
2021/04/16 14:38:08;;;;;;;8.30;5.47;;;16.70;79.90;;;;;;4972407;28;95117;-55
2021/04/16 14:40:38;;;;;;;11.02;5.72;;;16.70;79.90;;;;;;4969949;28;95542;-57
2021/04/16 14:43:10;;;;;;;8.88;5.07;;;16.70;79.90;;;;;;4972849;28;95165;-57
2021/04/16 14:45:45;;;;;;;10.77;4.32;;;16.70;79.90;;;;;;4968217;28;96367;-58
2021/04/16 14:48:16;;;;;;;9.10;4.82;;;16.70;79.80;;;;;;4973207;28;95405;-56
2021/04/16 14:50:48;;;;;;;9.23;5.53;;;16.60;79.90;;;;;;4969188;28;95732;-55
2021/04/16 14:53:24;;;;;;;7.13;4.80;;;16.70;79.90;;;;;;4973619;28;95608;-57
2021/04/16 14:55:53;;;;;;;8.35;4.90;;;16.70;79.90;;;;;;4970302;28;95784;-56
2021/04/16 14:58:40;;;;;;;8.43;5.50;;;16.70;79.90;;;;;;4973197;28;95287;-58
2021/04/16 15:01:10;;;;;;;9.27;5.43;;;16.60;79.90;;;;;;4989111;28;99993;-56
2021/04/16 15:03:40;;;;;;;10.18;5.43;;;16.60;79.80;;;;;;4971080;28;95013;-57
2021/04/16 15:06:22;;;;;;;;;;;16.60;79.80;;;;;;4970299;28;95901;-57
2021/04/16 15:09:04;;;;;;;7.85;4.78;;;16.60;79.80;;;;;;4973362;28;95734;-56
2021/04/16 15:11:40;;;;;;;8.50;4.80;;;16.60;79.90;;;;;;4969281;28;95514;-55
2021/04/16 15:14:23;;;;;;;7.53;4.72;;;16.60;79.90;;;;;;4971770;28;95517;-57
2021/04/16 15:16:54;;;;;;;6.55;4.45;;;16.50;79.90;;;;;;4964603;28;96912;-56
2021/04/16 15:19:35;;;;;;;8.93;5.03;;;16.60;79.90;;;;;;4969861;28;96602;-56
2021/04/16 15:22:16;;;;;;;6.75;4.05;;;16.50;80.00;;;;;;4968912;28;95632;-56
2021/04/16 15:24:48;;;;;;;7.22;4.93;;;16.50;79.90;;;;;;4972150;28;95739;-56
2021/04/16 15:27:24;;;;;;;7.60;5.13;;;16.50;80.00;;;;;;4970448;28;105258;-56
2021/04/16 15:29:58;;;;;;;8.40;4.30;;;16.50;79.90;;;;;;4971197;28;95421;-57
2021/04/16 15:32:33;;;;;;;7.72;5.03;;;16.50;79.90;;;;;;4965535;28;95331;-58
2021/04/16 15:46:35;;;;;;;10.67;4.53;;;16.40;79.90;;;;;;4964291;28;95328;-57
2021/04/16 15:49:07;;;;;;;8.23;4.05;;;16.40;79.90;;;;;;4971836;28;95838;-54
2021/04/16 15:51:38;;;;;;;9.23;4.53;;;16.50;80.00;;;;;;4969979;28;104198;-57
2021/04/16 15:54:10;;;;;;;6.13;4.15;;;16.40;79.90;;;;;;4972893;28;95566;-55
2021/04/16 15:56:44;;;;;;;7.63;4.78;;;16.40;80.00;;;;;;4973489;28;95459;-57
2021/04/16 15:59:20;;;;;;;6.78;4.60;;;16.40;80.00;;;;;;4987045;28;95930;-57
2021/04/16 16:01:49;;;;;;;8.60;4.75;;;16.40;79.90;;;;;;4967772;28;95774;-57
2021/04/16 16:04:21;;;;;;;7.30;4.28;;;16.40;79.90;;;;;;4951487;28;98057;-58
2021/04/16 16:06:53;;;;;;;8.35;4.60;;;16.40;80.00;;;;;;4971911;28;95638;-58
2021/04/16 16:09:24;;;;;;;6.50;4.43;;;16.40;79.90;;;;;;4969129;28;95795;-56
2021/04/16 16:12:05;;;;;;;7.32;4.15;;;16.40;79.90;;;;;;4970731;28;95448;-57
2021/04/16 16:14:36;;;;;;;;;;;16.40;79.90;;;;;;4968648;28;95415;-57
2021/04/16 16:17:06;;;;;;;12.15;5.88;;;16.30;79.90;;;;;;4968263;28;95687;-58
2021/04/16 16:19:37;;;;;;;9.27;4.93;;;16.40;80.00;;;;;;4967758;28;96492;-56